Anadyr', Russia
Current Conditions -  °F | °C
As of 6:00 AM on Monday 22 Dec 2014 (Local Time) from UHMA Reporting Station
Scattered Clouds Scattered Clouds  
Wind Chill: -35°   Ceiling: Unl
Heat Index: -15°   Visibility: 6mi
Dew Point: -17°   Wind: 11mph
Humidity: 92%   Direction: 20°NNE
Pressure: 30"   Gusts: NA
Location:  64.75°N, 177.48°E
Report Text: UHMA 211800Z 02005MPS 9999 SCT080 M26/M27 Q1016 RMKQFE758/1011
Loading
Personal Weather Stations






























Interactive Weather Map New forecast layout! Learn more

10-Day Weather Forecast

Advertisements
Track Severe Weather on mobile